sensor_id;sensor_type;location;lat;lon;timestamp;P1;durP1;ratioP1;P2;durP2;ratioP2
6420;SDS011;3243;50.958;7.012;2023-02-28T00:01:12;4.80;;;2.90;;
6420;SDS011;3243;50.958;7.012;2023-02-28T00:03:40;4.30;;;2.77;;
6420;SDS011;3243;50.958;7.012;2023-02-28T00:06:07;5.57;;;2.77;;
6420;SDS011;3243;50.958;7.012;2023-02-28T00:08:37;5.40;;;2.70;;
6420;SDS011;3243;50.958;7.012;2023-02-28T00:11:06;5.20;;;2.73;;
6420;SDS011;3243;50.958;7.012;2023-02-28T00:13:36;4.57;;;2.67;;
6420;SDS011;3243;50.958;7.012;2023-02-28T00:16:07;3.47;;;2.70;;
6420;SDS011;3243;50.958;7.012;2023-02-28T00:18:37;3.93;;;2.70;;
6420;SDS011;3243;50.958;7.012;2023-02-28T00:21:04;3.80;;;2.80;;
6420;SDS011;3243;50.958;7.012;2023-02-28T00:23:32;5.60;;;2.80;;
6420;SDS011;3243;50.958;7.012;2023-02-28T00:25:59;3.83;;;2.77;;
6420;SDS011;3243;50.958;7.012;2023-02-28T00:28:25;3.77;;;2.60;;
6420;SDS011;3243;50.958;7.012;2023-02-28T00:30:53;4.70;;;2.70;;
6420;SDS011;3243;50.958;7.012;2023-02-28T00:33:19;3.93;;;2.80;;
6420;SDS011;3243;50.958;7.012;2023-02-28T00:35:47;6.17;;;2.53;;
6420;SDS011;3243;50.958;7.012;2023-02-28T00:38:15;4.07;;;2.53;;
6420;SDS011;3243;50.958;7.012;2023-02-28T00:40:42;3.83;;;2.40;;
6420;SDS011;3243;50.958;7.012;2023-02-28T00:43:09;3.30;;;2.50;;
6420;SDS011;3243;50.958;7.012;2023-02-28T00:45:36;4.40;;;2.70;;
6420;SDS011;3243;50.958;7.012;2023-02-28T00:48:03;2.73;;;2.30;;
6420;SDS011;3243;50.958;7.012;2023-02-28T00:50:30;2.63;;;2.40;;
6420;SDS011;3243;50.958;7.012;2023-02-28T00:52:57;4.10;;;2.70;;
6420;SDS011;3243;50.958;7.012;2023-02-28T00:55:24;2.77;;;2.30;;
6420;SDS011;3243;50.958;7.012;2023-02-28T00:57:51;4.07;;;2.70;;
6420;SDS011;3243;50.958;7.012;2023-02-28T01:00:18;5.23;;;2.37;;
6420;SDS011;3243;50.958;7.012;2023-02-28T01:02:45;2.87;;;2.27;;
6420;SDS011;3243;50.958;7.012;2023-02-28T01:05:12;3.93;;;2.40;;
6420;SDS011;3243;50.958;7.012;2023-02-28T01:07:39;5.37;;;2.60;;
6420;SDS011;3243;50.958;7.012;2023-02-28T01:10:07;4.47;;;2.60;;
6420;SDS011;3243;50.958;7.012;2023-02-28T01:12:34;3.60;;;2.27;;
6420;SDS011;3243;50.958;7.012;2023-02-28T01:15:01;2.80;;;2.50;;
6420;SDS011;3243;50.958;7.012;2023-02-28T01:17:28;2.70;;;2.30;;
6420;SDS011;3243;50.958;7.012;2023-02-28T01:19:56;4.37;;;2.43;;
6420;SDS011;3243;50.958;7.012;2023-02-28T01:22:23;4.57;;;2.47;;
6420;SDS011;3243;50.958;7.012;2023-02-28T01:24:50;3.33;;;2.47;;
6420;SDS011;3243;50.958;7.012;2023-02-28T01:27:17;3.70;;;2.60;;
6420;SDS011;3243;50.958;7.012;2023-02-28T01:29:44;5.50;;;2.90;;
6420;SDS011;3243;50.958;7.012;2023-02-28T01:32:11;4.67;;;2.60;;
6420;SDS011;3243;50.958;7.012;2023-02-28T01:34:39;2.63;;;2.43;;
6420;SDS011;3243;50.958;7.012;2023-02-28T01:37:06;3.83;;;2.60;;
6420;SDS011;3243;50.958;7.012;2023-02-28T01:39:33;4.33;;;2.70;;
6420;SDS011;3243;50.958;7.012;2023-02-28T01:42:00;3.60;;;2.33;;
6420;SDS011;3243;50.958;7.012;2023-02-28T01:47:32;2.60;;;2.40;;
6420;SDS011;3243;50.958;7.012;2023-02-28T01:50:07;4.57;;;2.70;;
6420;SDS011;3243;50.958;7.012;2023-02-28T01:52:40;4.17;;;2.77;;
6420;SDS011;3243;50.958;7.012;2023-02-28T01:55:08;3.83;;;2.40;;
6420;SDS011;3243;50.958;7.012;2023-02-28T01:57:40;5.47;;;2.50;;
6420;SDS011;3243;50.958;7.012;2023-02-28T02:00:13;3.70;;;2.60;;
6420;SDS011;3243;50.958;7.012;2023-02-28T02:02:42;4.23;;;2.70;;
6420;SDS011;3243;50.958;7.012;2023-02-28T02:05:19;4.53;;;2.60;;
6420;SDS011;3243;50.958;7.012;2023-02-28T02:07:51;3.37;;;2.57;;
6420;SDS011;3243;50.958;7.012;2023-02-28T02:10:24;3.37;;;2.33;;
6420;SDS011;3243;50.958;7.012;2023-02-28T02:13:02;3.03;;;2.67;;
6420;SDS011;3243;50.958;7.012;2023-02-28T02:18:41;4.50;;;2.40;;
6420;SDS011;3243;50.958;7.012;2023-02-28T02:21:13;2.57;;;2.33;;
6420;SDS011;3243;50.958;7.012;2023-02-28T02:29:16;3.60;;;2.70;;
6420;SDS011;3243;50.958;7.012;2023-02-28T02:40:13;4.80;;;2.50;;
6420;SDS011;3243;50.958;7.012;2023-02-28T02:45:43;3.67;;;2.40;;
6420;SDS011;3243;50.958;7.012;2023-02-28T02:48:24;2.67;;;2.20;;
6420;SDS011;3243;50.958;7.012;2023-02-28T02:50:55;2.83;;;2.33;;
6420;SDS011;3243;50.958;7.012;2023-02-28T02:53:27;3.10;;;2.67;;
6420;SDS011;3243;50.958;7.012;2023-02-28T02:56:01;7.37;;;2.80;;
6420;SDS011;3243;50.958;7.012;2023-02-28T02:58:31;2.70;;;2.30;;
6420;SDS011;3243;50.958;7.012;2023-02-28T03:01:01;4.43;;;2.40;;
6420;SDS011;3243;50.958;7.012;2023-02-28T03:03:30;4.83;;;2.60;;
6420;SDS011;3243;50.958;7.012;2023-02-28T03:05:59;4.10;;;2.67;;
6420;SDS011;3243;50.958;7.012;2023-02-28T03:08:28;3.20;;;2.50;;
6420;SDS011;3243;50.958;7.012;2023-02-28T03:11:03;2.67;;;2.33;;
6420;SDS011;3243;50.958;7.012;2023-02-28T03:22:00;3.63;;;2.57;;
6420;SDS011;3243;50.958;7.012;2023-02-28T03:24:32;3.70;;;2.40;;
6420;SDS011;3243;50.958;7.012;2023-02-28T03:27:06;5.93;;;2.67;;
6420;SDS011;3243;50.958;7.012;2023-02-28T03:29:42;3.77;;;2.50;;
6420;SDS011;3243;50.958;7.012;2023-02-28T03:32:18;3.50;;;2.30;;
6420;SDS011;3243;50.958;7.012;2023-02-28T03:37:32;3.33;;;2.30;;
6420;SDS011;3243;50.958;7.012;2023-02-28T03:40:04;3.27;;;2.40;;
6420;SDS011;3243;50.958;7.012;2023-02-28T03:42:38;2.67;;;2.30;;
6420;SDS011;3243;50.958;7.012;2023-02-28T03:45:12;3.57;;;2.20;;
6420;SDS011;3243;50.958;7.012;2023-02-28T03:47:53;2.57;;;2.23;;
6420;SDS011;3243;50.958;7.012;2023-02-28T03:53:01;3.40;;;2.43;;
6420;SDS011;3243;50.958;7.012;2023-02-28T03:55:42;3.07;;;2.50;;
6420;SDS011;3243;50.958;7.012;2023-02-28T04:00:49;2.50;;;2.30;;
6420;SDS011;3243;50.958;7.012;2023-02-28T04:03:22;4.00;;;2.30;;
6420;SDS011;3243;50.958;7.012;2023-02-28T04:05:50;2.87;;;2.40;;
6420;SDS011;3243;50.958;7.012;2023-02-28T04:08:19;3.70;;;2.33;;
6420;SDS011;3243;50.958;7.012;2023-02-28T04:10:48;3.23;;;2.37;;
6420;SDS011;3243;50.958;7.012;2023-02-28T04:13:37;3.17;;;2.27;;
6420;SDS011;3243;50.958;7.012;2023-02-28T04:16:06;5.27;;;2.80;;
6420;SDS011;3243;50.958;7.012;2023-02-28T04:18:49;5.67;;;2.60;;
6420;SDS011;3243;50.958;7.012;2023-02-28T04:21:16;2.60;;;2.40;;
6420;SDS011;3243;50.958;7.012;2023-02-28T04:23:46;3.43;;;2.60;;
6420;SDS011;3243;50.958;7.012;2023-02-28T04:26:13;4.07;;;2.50;;
6420;SDS011;3243;50.958;7.012;2023-02-28T04:28:40;4.87;;;2.77;;
6420;SDS011;3243;50.958;7.012;2023-02-28T04:31:07;2.70;;;2.50;;
6420;SDS011;3243;50.958;7.012;2023-02-28T04:33:33;4.43;;;2.90;;
6420;SDS011;3243;50.958;7.012;2023-02-28T04:36:07;4.90;;;2.80;;
6420;SDS011;3243;50.958;7.012;2023-02-28T04:38:35;5.47;;;3.03;;
6420;SDS011;3243;50.958;7.012;2023-02-28T04:41:04;4.07;;;2.90;;
6420;SDS011;3243;50.958;7.012;2023-02-28T04:43:31;5.00;;;2.97;;
6420;SDS011;3243;50.958;7.012;2023-02-28T04:46:00;6.20;;;3.10;;
6420;SDS011;3243;50.958;7.012;2023-02-28T04:48:29;3.10;;;2.73;;
6420;SDS011;3243;50.958;7.012;2023-02-28T04:51:04;3.97;;;2.93;;
6420;SDS011;3243;50.958;7.012;2023-02-28T04:53:32;5.00;;;2.80;;
6420;SDS011;3243;50.958;7.012;2023-02-28T04:55:59;5.57;;;3.13;;
6420;SDS011;3243;50.958;7.012;2023-02-28T04:58:26;4.50;;;3.10;;
6420;SDS011;3243;50.958;7.012;2023-02-28T05:00:54;3.70;;;2.80;;
6420;SDS011;3243;50.958;7.012;2023-02-28T05:03:28;7.93;;;3.20;;
6420;SDS011;3243;50.958;7.012;2023-02-28T05:05:55;4.53;;;3.23;;
6420;SDS011;3243;50.958;7.012;2023-02-28T05:08:22;5.90;;;3.63;;
6420;SDS011;3243;50.958;7.012;2023-02-28T05:10:48;4.07;;;3.17;;
6420;SDS011;3243;50.958;7.012;2023-02-28T05:13:15;5.43;;;3.70;;
6420;SDS011;3243;50.958;7.012;2023-02-28T05:15:42;4.80;;;3.60;;
6420;SDS011;3243;50.958;7.012;2023-02-28T05:18:08;6.00;;;3.50;;
6420;SDS011;3243;50.958;7.012;2023-02-28T05:20:35;4.70;;;3.10;;
6420;SDS011;3243;50.958;7.012;2023-02-28T05:23:03;6.30;;;3.50;;
6420;SDS011;3243;50.958;7.012;2023-02-28T05:25:30;4.07;;;3.20;;
6420;SDS011;3243;50.958;7.012;2023-02-28T05:27:57;3.90;;;2.90;;
6420;SDS011;3243;50.958;7.012;2023-02-28T05:30:23;4.73;;;3.00;;
6420;SDS011;3243;50.958;7.012;2023-02-28T05:32:51;5.77;;;3.20;;
6420;SDS011;3243;50.958;7.012;2023-02-28T05:35:18;4.13;;;3.20;;
6420;SDS011;3243;50.958;7.012;2023-02-28T05:37:44;4.60;;;2.90;;
6420;SDS011;3243;50.958;7.012;2023-02-28T05:40:11;3.97;;;3.10;;
6420;SDS011;3243;50.958;7.012;2023-02-28T05:42:38;3.97;;;3.10;;
6420;SDS011;3243;50.958;7.012;2023-02-28T05:45:05;4.03;;;3.00;;
6420;SDS011;3243;50.958;7.012;2023-02-28T05:47:33;4.90;;;2.90;;
6420;SDS011;3243;50.958;7.012;2023-02-28T05:50:00;4.10;;;2.83;;
6420;SDS011;3243;50.958;7.012;2023-02-28T05:52:27;3.57;;;3.00;;
6420;SDS011;3243;50.958;7.012;2023-02-28T05:54:56;3.87;;;2.87;;
6420;SDS011;3243;50.958;7.012;2023-02-28T05:57:22;3.83;;;2.90;;
6420;SDS011;3243;50.958;7.012;2023-02-28T05:59:50;3.23;;;2.60;;
6420;SDS011;3243;50.958;7.012;2023-02-28T06:02:17;4.53;;;2.90;;
6420;SDS011;3243;50.958;7.012;2023-02-28T06:04:44;3.90;;;2.60;;
6420;SDS011;3243;50.958;7.012;2023-02-28T06:07:11;3.03;;;2.53;;
6420;SDS011;3243;50.958;7.012;2023-02-28T06:09:41;4.30;;;2.57;;
6420;SDS011;3243;50.958;7.012;2023-02-28T06:12:08;2.90;;;2.50;;
6420;SDS011;3243;50.958;7.012;2023-02-28T06:14:36;3.40;;;2.60;;
6420;SDS011;3243;50.958;7.012;2023-02-28T06:17:03;3.07;;;2.73;;
6420;SDS011;3243;50.958;7.012;2023-02-28T06:19:30;2.87;;;2.43;;
6420;SDS011;3243;50.958;7.012;2023-02-28T06:21:57;3.00;;;2.70;;
6420;SDS011;3243;50.958;7.012;2023-02-28T06:24:25;3.07;;;2.77;;
6420;SDS011;3243;50.958;7.012;2023-02-28T06:26:54;5.50;;;2.60;;
6420;SDS011;3243;50.958;7.012;2023-02-28T06:29:21;4.27;;;2.60;;
6420;SDS011;3243;50.958;7.012;2023-02-28T06:31:48;5.40;;;3.13;;
6420;SDS011;3243;50.958;7.012;2023-02-28T06:34:16;2.97;;;2.67;;
6420;SDS011;3243;50.958;7.012;2023-02-28T06:36:43;3.47;;;2.87;;
6420;SDS011;3243;50.958;7.012;2023-02-28T06:39:10;4.67;;;2.87;;
6420;SDS011;3243;50.958;7.012;2023-02-28T06:41:36;4.83;;;3.00;;
6420;SDS011;3243;50.958;7.012;2023-02-28T06:44:19;4.87;;;2.80;;
6420;SDS011;3243;50.958;7.012;2023-02-28T06:46:47;4.43;;;2.83;;
6420;SDS011;3243;50.958;7.012;2023-02-28T06:49:15;3.47;;;2.70;;
6420;SDS011;3243;50.958;7.012;2023-02-28T06:51:43;3.23;;;2.40;;
6420;SDS011;3243;50.958;7.012;2023-02-28T06:54:13;3.90;;;2.53;;
6420;SDS011;3243;50.958;7.012;2023-02-28T06:56:40;3.07;;;2.70;;
6420;SDS011;3243;50.958;7.012;2023-02-28T06:59:07;5.47;;;2.77;;
6420;SDS011;3243;50.958;7.012;2023-02-28T07:01:34;5.77;;;2.60;;
6420;SDS011;3243;50.958;7.012;2023-02-28T07:04:01;5.03;;;2.77;;
6420;SDS011;3243;50.958;7.012;2023-02-28T07:06:28;4.03;;;2.90;;
6420;SDS011;3243;50.958;7.012;2023-02-28T07:08:55;4.23;;;2.60;;
6420;SDS011;3243;50.958;7.012;2023-02-28T07:11:22;3.20;;;2.70;;
6420;SDS011;3243;50.958;7.012;2023-02-28T07:13:55;4.97;;;2.83;;
6420;SDS011;3243;50.958;7.012;2023-02-28T07:16:23;3.33;;;2.63;;
6420;SDS011;3243;50.958;7.012;2023-02-28T07:18:54;3.67;;;2.77;;
6420;SDS011;3243;50.958;7.012;2023-02-28T07:21:21;4.03;;;2.53;;
6420;SDS011;3243;50.958;7.012;2023-02-28T07:23:48;3.83;;;2.90;;
6420;SDS011;3243;50.958;7.012;2023-02-28T07:26:15;3.13;;;2.70;;
6420;SDS011;3243;50.958;7.012;2023-02-28T07:28:44;3.07;;;2.70;;
6420;SDS011;3243;50.958;7.012;2023-02-28T07:31:12;2.70;;;2.50;;
6420;SDS011;3243;50.958;7.012;2023-02-28T07:33:40;3.27;;;2.50;;
6420;SDS011;3243;50.958;7.012;2023-02-28T07:36:09;3.77;;;2.97;;
6420;SDS011;3243;50.958;7.012;2023-02-28T07:38:41;5.27;;;2.90;;
6420;SDS011;3243;50.958;7.012;2023-02-28T07:41:14;3.93;;;2.87;;
6420;SDS011;3243;50.958;7.012;2023-02-28T07:43:41;3.50;;;2.70;;
6420;SDS011;3243;50.958;7.012;2023-02-28T07:46:09;3.80;;;2.60;;
6420;SDS011;3243;50.958;7.012;2023-02-28T07:48:37;4.17;;;2.60;;
6420;SDS011;3243;50.958;7.012;2023-02-28T07:51:04;4.20;;;2.70;;
6420;SDS011;3243;50.958;7.012;2023-02-28T07:53:31;4.90;;;2.70;;
6420;SDS011;3243;50.958;7.012;2023-02-28T07:55:59;4.53;;;2.83;;
6420;SDS011;3243;50.958;7.012;2023-02-28T07:58:28;2.93;;;2.63;;
6420;SDS011;3243;50.958;7.012;2023-02-28T08:00:56;3.53;;;2.60;;
6420;SDS011;3243;50.958;7.012;2023-02-28T08:03:23;3.37;;;2.70;;
6420;SDS011;3243;50.958;7.012;2023-02-28T08:05:50;2.97;;;2.50;;
6420;SDS011;3243;50.958;7.012;2023-02-28T08:08:18;3.70;;;2.50;;
6420;SDS011;3243;50.958;7.012;2023-02-28T08:10:45;4.57;;;2.67;;
6420;SDS011;3243;50.958;7.012;2023-02-28T08:13:12;6.67;;;3.00;;
6420;SDS011;3243;50.958;7.012;2023-02-28T08:15:40;3.63;;;2.43;;
6420;SDS011;3243;50.958;7.012;2023-02-28T08:18:09;3.93;;;2.23;;
6420;SDS011;3243;50.958;7.012;2023-02-28T08:20:36;2.90;;;2.27;;
6420;SDS011;3243;50.958;7.012;2023-02-28T08:23:03;3.60;;;2.20;;
6420;SDS011;3243;50.958;7.012;2023-02-28T08:25:29;2.80;;;2.20;;
6420;SDS011;3243;50.958;7.012;2023-02-28T08:27:56;3.30;;;2.07;;
6420;SDS011;3243;50.958;7.012;2023-02-28T08:30:23;2.97;;;2.30;;
6420;SDS011;3243;50.958;7.012;2023-02-28T08:32:49;2.30;;;2.10;;
6420;SDS011;3243;50.958;7.012;2023-02-28T08:35:16;2.03;;;1.80;;
6420;SDS011;3243;50.958;7.012;2023-02-28T08:37:43;2.63;;;2.10;;
6420;SDS011;3243;50.958;7.012;2023-02-28T08:40:10;2.50;;;2.00;;
6420;SDS011;3243;50.958;7.012;2023-02-28T08:42:39;3.50;;;1.90;;
6420;SDS011;3243;50.958;7.012;2023-02-28T08:45:06;3.40;;;2.10;;
6420;SDS011;3243;50.958;7.012;2023-02-28T08:47:33;3.97;;;2.00;;
6420;SDS011;3243;50.958;7.012;2023-02-28T08:49:59;2.40;;;1.77;;
6420;SDS011;3243;50.958;7.012;2023-02-28T08:52:26;3.43;;;2.30;;
6420;SDS011;3243;50.958;7.012;2023-02-28T08:54:53;1.97;;;1.63;;
6420;SDS011;3243;50.958;7.012;2023-02-28T08:57:20;3.77;;;2.10;;
6420;SDS011;3243;50.958;7.012;2023-02-28T08:59:46;2.40;;;1.73;;
6420;SDS011;3243;50.958;7.012;2023-02-28T09:02:13;2.97;;;1.80;;
6420;SDS011;3243;50.958;7.012;2023-02-28T09:04:40;2.00;;;1.80;;
6420;SDS011;3243;50.958;7.012;2023-02-28T09:07:07;2.23;;;1.93;;
6420;SDS011;3243;50.958;7.012;2023-02-28T09:09:35;1.87;;;1.53;;
6420;SDS011;3243;50.958;7.012;2023-02-28T09:12:02;1.80;;;1.70;;
6420;SDS011;3243;50.958;7.012;2023-02-28T09:14:29;2.23;;;2.00;;
6420;SDS011;3243;50.958;7.012;2023-02-28T09:16:56;4.03;;;1.80;;
6420;SDS011;3243;50.958;7.012;2023-02-28T09:19:23;5.60;;;2.10;;
6420;SDS011;3243;50.958;7.012;2023-02-28T09:21:50;2.43;;;1.97;;
6420;SDS011;3243;50.958;7.012;2023-02-28T09:24:18;2.57;;;2.00;;
6420;SDS011;3243;50.958;7.012;2023-02-28T09:26:46;1.77;;;1.60;;
6420;SDS011;3243;50.958;7.012;2023-02-28T09:29:29;3.67;;;1.70;;
6420;SDS011;3243;50.958;7.012;2023-02-28T09:31:56;2.23;;;1.70;;
6420;SDS011;3243;50.958;7.012;2023-02-28T09:34:25;2.20;;;1.77;;
6420;SDS011;3243;50.958;7.012;2023-02-28T09:36:53;2.27;;;1.80;;
6420;SDS011;3243;50.958;7.012;2023-02-28T09:39:22;2.00;;;1.70;;
6420;SDS011;3243;50.958;7.012;2023-02-28T09:41:52;1.77;;;1.67;;
6420;SDS011;3243;50.958;7.012;2023-02-28T09:44:29;1.83;;;1.70;;
6420;SDS011;3243;50.958;7.012;2023-02-28T09:47:08;2.60;;;1.70;;
6420;SDS011;3243;50.958;7.012;2023-02-28T09:49:55;2.30;;;1.93;;
6420;SDS011;3243;50.958;7.012;2023-02-28T09:52:30;2.73;;;1.80;;
6420;SDS011;3243;50.958;7.012;2023-02-28T09:55:08;2.83;;;1.70;;
6420;SDS011;3243;50.958;7.012;2023-02-28T09:57:48;1.97;;;1.80;;
6420;SDS011;3243;50.958;7.012;2023-02-28T10:00:24;2.27;;;2.07;;
6420;SDS011;3243;50.958;7.012;2023-02-28T10:03:08;1.70;;;1.60;;
6420;SDS011;3243;50.958;7.012;2023-02-28T10:11:02;2.10;;;1.90;;
6420;SDS011;3243;50.958;7.012;2023-02-28T10:16:13;2.80;;;1.77;;
6420;SDS011;3243;50.958;7.012;2023-02-28T10:19:06;2.00;;;1.80;;
6420;SDS011;3243;50.958;7.012;2023-02-28T10:21:47;2.73;;;1.90;;
6420;SDS011;3243;50.958;7.012;2023-02-28T10:26:56;2.17;;;1.70;;
6420;SDS011;3243;50.958;7.012;2023-02-28T10:29:27;2.00;;;1.80;;
6420;SDS011;3243;50.958;7.012;2023-02-28T10:31:56;2.20;;;2.00;;
6420;SDS011;3243;50.958;7.012;2023-02-28T10:34:23;3.07;;;2.00;;
6420;SDS011;3243;50.958;7.012;2023-02-28T10:36:50;2.70;;;2.10;;
6420;SDS011;3243;50.958;7.012;2023-02-28T10:39:40;2.53;;;2.23;;
6420;SDS011;3243;50.958;7.012;2023-02-28T10:44:45;2.83;;;1.90;;
6420;SDS011;3243;50.958;7.012;2023-02-28T10:47:14;2.40;;;1.93;;
6420;SDS011;3243;50.958;7.012;2023-02-28T10:49:49;2.10;;;1.70;;
6420;SDS011;3243;50.958;7.012;2023-02-28T10:52:35;3.10;;;2.00;;
6420;SDS011;3243;50.958;7.012;2023-02-28T10:58:01;2.80;;;1.97;;
6420;SDS011;3243;50.958;7.012;2023-02-28T11:00:32;3.77;;;2.27;;
6420;SDS011;3243;50.958;7.012;2023-02-28T11:03:01;3.17;;;2.10;;
6420;SDS011;3243;50.958;7.012;2023-02-28T11:05:30;2.27;;;2.07;;
6420;SDS011;3243;50.958;7.012;2023-02-28T11:08:02;2.30;;;2.00;;
6420;SDS011;3243;50.958;7.012;2023-02-28T11:10:46;2.27;;;2.07;;
6420;SDS011;3243;50.958;7.012;2023-02-28T11:13:20;2.87;;;2.20;;
6420;SDS011;3243;50.958;7.012;2023-02-28T11:15:52;3.13;;;2.10;;
6420;SDS011;3243;50.958;7.012;2023-02-28T11:20:50;2.53;;;2.20;;
6420;SDS011;3243;50.958;7.012;2023-02-28T11:23:20;2.40;;;2.20;;
6420;SDS011;3243;50.958;7.012;2023-02-28T11:25:51;2.90;;;2.10;;
6420;SDS011;3243;50.958;7.012;2023-02-28T11:28:23;2.73;;;2.10;;
6420;SDS011;3243;50.958;7.012;2023-02-28T11:33:37;3.17;;;2.23;;
6420;SDS011;3243;50.958;7.012;2023-02-28T11:36:21;3.90;;;2.80;;
6420;SDS011;3243;50.958;7.012;2023-02-28T11:38:54;2.60;;;2.10;;
6420;SDS011;3243;50.958;7.012;2023-02-28T11:41:57;2.40;;;2.20;;
6420;SDS011;3243;50.958;7.012;2023-02-28T11:50:42;3.03;;;2.07;;
6420;SDS011;3243;50.958;7.012;2023-02-28T11:56:44;3.63;;;2.20;;
6420;SDS011;3243;50.958;7.012;2023-02-28T11:59:19;5.27;;;2.83;;
6420;SDS011;3243;50.958;7.012;2023-02-28T12:20:49;2.90;;;2.60;;
6420;SDS011;3243;50.958;7.012;2023-02-28T12:26:14;3.10;;;2.43;;
6420;SDS011;3243;50.958;7.012;2023-02-28T12:28:47;3.10;;;2.80;;
6420;SDS011;3243;50.958;7.012;2023-02-28T12:33:51;4.70;;;2.30;;
6420;SDS011;3243;50.958;7.012;2023-02-28T12:36:21;3.97;;;2.47;;
6420;SDS011;3243;50.958;7.012;2023-02-28T12:41:26;2.40;;;2.20;;
6420;SDS011;3243;50.958;7.012;2023-02-28T12:44:02;4.63;;;2.50;;
6420;SDS011;3243;50.958;7.012;2023-02-28T12:46:54;4.00;;;2.60;;
6420;SDS011;3243;50.958;7.012;2023-02-28T12:49:30;3.43;;;2.57;;
6420;SDS011;3243;50.958;7.012;2023-02-28T12:52:00;4.67;;;2.80;;
6420;SDS011;3243;50.958;7.012;2023-02-28T12:54:32;2.60;;;2.40;;
6420;SDS011;3243;50.958;7.012;2023-02-28T12:57:34;4.37;;;3.03;;
6420;SDS011;3243;50.958;7.012;2023-02-28T13:00:04;3.87;;;2.50;;
6420;SDS011;3243;50.958;7.012;2023-02-28T13:08:27;3.73;;;2.83;;
6420;SDS011;3243;50.958;7.012;2023-02-28T13:11:05;4.50;;;3.10;;
6420;SDS011;3243;50.958;7.012;2023-02-28T13:13:44;4.67;;;2.53;;
6420;SDS011;3243;50.958;7.012;2023-02-28T13:16:12;2.70;;;2.43;;
6420;SDS011;3243;50.958;7.012;2023-02-28T13:18:39;2.73;;;2.43;;
6420;SDS011;3243;50.958;7.012;2023-02-28T13:21:24;3.20;;;2.20;;
6420;SDS011;3243;50.958;7.012;2023-02-28T13:23:58;5.30;;;2.77;;
6420;SDS011;3243;50.958;7.012;2023-02-28T13:34:32;3.70;;;2.80;;
6420;SDS011;3243;50.958;7.012;2023-02-28T13:39:50;4.57;;;2.97;;
6420;SDS011;3243;50.958;7.012;2023-02-28T13:47:36;5.33;;;2.60;;
6420;SDS011;3243;50.958;7.012;2023-02-28T13:50:26;4.03;;;2.80;;
6420;SDS011;3243;50.958;7.012;2023-02-28T13:58:35;4.23;;;3.07;;
6420;SDS011;3243;50.958;7.012;2023-02-28T14:06:58;3.20;;;2.67;;
6420;SDS011;3243;50.958;7.012;2023-02-28T14:09:28;4.27;;;3.07;;
6420;SDS011;3243;50.958;7.012;2023-02-28T14:18:03;3.13;;;2.53;;
6420;SDS011;3243;50.958;7.012;2023-02-28T14:20:39;3.23;;;2.93;;
6420;SDS011;3243;50.958;7.012;2023-02-28T14:33:54;3.53;;;2.93;;
6420;SDS011;3243;50.958;7.012;2023-02-28T14:36:33;6.03;;;3.00;;
6420;SDS011;3243;50.958;7.012;2023-02-28T14:39:10;3.50;;;3.07;;
6420;SDS011;3243;50.958;7.012;2023-02-28T14:41:41;4.57;;;3.33;;
6420;SDS011;3243;50.958;7.012;2023-02-28T14:44:14;4.17;;;2.87;;
6420;SDS011;3243;50.958;7.012;2023-02-28T14:46:53;3.80;;;3.03;;
6420;SDS011;3243;50.958;7.012;2023-02-28T14:49:23;4.47;;;3.10;;
6420;SDS011;3243;50.958;7.012;2023-02-28T14:54:41;3.03;;;2.73;;
6420;SDS011;3243;50.958;7.012;2023-02-28T14:57:26;3.30;;;2.80;;
6420;SDS011;3243;50.958;7.012;2023-02-28T15:02:34;3.10;;;2.70;;
6420;SDS011;3243;50.958;7.012;2023-02-28T15:05:10;4.33;;;3.00;;
6420;SDS011;3243;50.958;7.012;2023-02-28T15:08:00;3.50;;;2.97;;
6420;SDS011;3243;50.958;7.012;2023-02-28T15:10:31;3.60;;;2.80;;
6420;SDS011;3243;50.958;7.012;2023-02-28T15:13:00;3.70;;;3.07;;
6420;SDS011;3243;50.958;7.012;2023-02-28T15:15:34;3.70;;;3.07;;
6420;SDS011;3243;50.958;7.012;2023-02-28T15:21:30;5.03;;;3.07;;
6420;SDS011;3243;50.958;7.012;2023-02-28T15:24:04;3.13;;;2.83;;
6420;SDS011;3243;50.958;7.012;2023-02-28T15:26:41;5.70;;;2.87;;
6420;SDS011;3243;50.958;7.012;2023-02-28T15:29:13;5.40;;;3.20;;
6420;SDS011;3243;50.958;7.012;2023-02-28T15:31:46;5.67;;;3.80;;
6420;SDS011;3243;50.958;7.012;2023-02-28T15:34:44;4.60;;;3.63;;
6420;SDS011;3243;50.958;7.012;2023-02-28T15:43:16;3.70;;;2.87;;
6420;SDS011;3243;50.958;7.012;2023-02-28T15:45:49;5.03;;;2.93;;
6420;SDS011;3243;50.958;7.012;2023-02-28T15:48:29;4.20;;;2.83;;
6420;SDS011;3243;50.958;7.012;2023-02-28T15:51:07;4.27;;;3.00;;
6420;SDS011;3243;50.958;7.012;2023-02-28T15:54:17;4.33;;;3.40;;
6420;SDS011;3243;50.958;7.012;2023-02-28T15:56:49;4.97;;;2.90;;
6420;SDS011;3243;50.958;7.012;2023-02-28T15:59:19;6.27;;;3.03;;
6420;SDS011;3243;50.958;7.012;2023-02-28T16:04:37;3.37;;;2.90;;
6420;SDS011;3243;50.958;7.012;2023-02-28T16:07:20;3.33;;;3.03;;
6420;SDS011;3243;50.958;7.012;2023-02-28T16:09:46;7.20;;;3.30;;
6420;SDS011;3243;50.958;7.012;2023-02-28T16:12:14;4.17;;;2.90;;
6420;SDS011;3243;50.958;7.012;2023-02-28T16:14:41;3.50;;;2.63;;
6420;SDS011;3243;50.958;7.012;2023-02-28T16:17:17;4.53;;;2.80;;
6420;SDS011;3243;50.958;7.012;2023-02-28T16:19:48;3.37;;;2.70;;
6420;SDS011;3243;50.958;7.012;2023-02-28T16:22:15;5.20;;;2.90;;
6420;SDS011;3243;50.958;7.012;2023-02-28T16:24:41;4.67;;;3.30;;
6420;SDS011;3243;50.958;7.012;2023-02-28T16:27:20;6.60;;;3.03;;
6420;SDS011;3243;50.958;7.012;2023-02-28T16:29:59;3.57;;;2.80;;
6420;SDS011;3243;50.958;7.012;2023-02-28T16:32:27;3.30;;;2.83;;
6420;SDS011;3243;50.958;7.012;2023-02-28T16:35:01;4.07;;;3.03;;
6420;SDS011;3243;50.958;7.012;2023-02-28T16:37:28;3.33;;;3.00;;
6420;SDS011;3243;50.958;7.012;2023-02-28T16:39:55;3.43;;;2.90;;
6420;SDS011;3243;50.958;7.012;2023-02-28T16:42:23;4.40;;;3.30;;
6420;SDS011;3243;50.958;7.012;2023-02-28T16:44:53;3.63;;;2.77;;
6420;SDS011;3243;50.958;7.012;2023-02-28T16:47:21;5.37;;;2.87;;
6420;SDS011;3243;50.958;7.012;2023-02-28T16:49:48;3.33;;;3.03;;
6420;SDS011;3243;50.958;7.012;2023-02-28T16:52:15;4.10;;;2.80;;
6420;SDS011;3243;50.958;7.012;2023-02-28T16:54:42;4.10;;;2.87;;
6420;SDS011;3243;50.958;7.012;2023-02-28T16:57:21;5.07;;;3.67;;
6420;SDS011;3243;50.958;7.012;2023-02-28T16:59:49;3.30;;;3.00;;
6420;SDS011;3243;50.958;7.012;2023-02-28T17:02:19;4.13;;;3.23;;
6420;SDS011;3243;50.958;7.012;2023-02-28T17:04:46;2.90;;;2.63;;
6420;SDS011;3243;50.958;7.012;2023-02-28T17:07:14;5.27;;;2.80;;
6420;SDS011;3243;50.958;7.012;2023-02-28T17:09:43;4.13;;;2.77;;
6420;SDS011;3243;50.958;7.012;2023-02-28T17:12:11;2.80;;;2.57;;
6420;SDS011;3243;50.958;7.012;2023-02-28T17:14:38;3.17;;;2.87;;
6420;SDS011;3243;50.958;7.012;2023-02-28T17:17:05;3.83;;;2.80;;
6420;SDS011;3243;50.958;7.012;2023-02-28T17:19:33;4.93;;;3.10;;
6420;SDS011;3243;50.958;7.012;2023-02-28T17:22:02;4.77;;;2.80;;
6420;SDS011;3243;50.958;7.012;2023-02-28T17:24:29;5.43;;;2.90;;
6420;SDS011;3243;50.958;7.012;2023-02-28T17:26:56;4.20;;;3.20;;
6420;SDS011;3243;50.958;7.012;2023-02-28T17:29:24;5.20;;;3.17;;
6420;SDS011;3243;50.958;7.012;2023-02-28T17:31:51;3.47;;;2.73;;
6420;SDS011;3243;50.958;7.012;2023-02-28T17:34:18;3.97;;;3.00;;
6420;SDS011;3243;50.958;7.012;2023-02-28T17:36:46;3.27;;;2.80;;
6420;SDS011;3243;50.958;7.012;2023-02-28T17:39:14;5.17;;;3.07;;
6420;SDS011;3243;50.958;7.012;2023-02-28T17:41:47;5.77;;;3.07;;
6420;SDS011;3243;50.958;7.012;2023-02-28T17:44:14;5.13;;;2.90;;
6420;SDS011;3243;50.958;7.012;2023-02-28T17:46:41;3.27;;;2.93;;
6420;SDS011;3243;50.958;7.012;2023-02-28T17:49:09;4.67;;;2.90;;
6420;SDS011;3243;50.958;7.012;2023-02-28T17:51:36;4.13;;;2.97;;
6420;SDS011;3243;50.958;7.012;2023-02-28T17:54:03;4.30;;;3.33;;
6420;SDS011;3243;50.958;7.012;2023-02-28T17:56:30;4.43;;;3.10;;
6420;SDS011;3243;50.958;7.012;2023-02-28T17:58:57;5.57;;;3.20;;
6420;SDS011;3243;50.958;7.012;2023-02-28T18:01:24;4.43;;;3.20;;
6420;SDS011;3243;50.958;7.012;2023-02-28T18:03:54;4.40;;;3.30;;
6420;SDS011;3243;50.958;7.012;2023-02-28T18:06:22;6.60;;;3.63;;
6420;SDS011;3243;50.958;7.012;2023-02-28T18:08:51;6.27;;;3.77;;
6420;SDS011;3243;50.958;7.012;2023-02-28T18:11:18;5.67;;;3.87;;
6420;SDS011;3243;50.958;7.012;2023-02-28T18:13:47;5.53;;;3.60;;
6420;SDS011;3243;50.958;7.012;2023-02-28T18:16:16;5.83;;;3.83;;
6420;SDS011;3243;50.958;7.012;2023-02-28T18:18:44;5.33;;;3.80;;
6420;SDS011;3243;50.958;7.012;2023-02-28T18:21:12;4.87;;;3.47;;